ADDS METAR Data INFO
IDs: Format: Raw Decoded Include TAF

Data at: 0303 UTC 21 Oct 2017

KMKO 210253Z AUTO 14010G17KT 10SM CLR 19/16 A2994 RMK AO2 SLP134 60000 T01940161 50004
KMKO 210153Z AUTO 15010G18KT 10SM CLR 20/16 A2994 RMK AO2 SLP135 T02000161
KMKO 210053Z AUTO 14012KT 10SM CLR 21/16 A2994 RMK AO2 RAE01 SLP135 P0000 T02060156
KMKO 202353Z AUTO 14011G20KT 10SM -RA CLR 22/15 A2993 RMK AO2 RAB2254 SLP131 P0000 60000 T02170150 10261 20217 55012
KMKO 202253Z AUTO 14019G24KT 10SM CLR 23/15 A2993 RMK AO2 SLP129 T02330150
KMKO 202153Z AUTO 15015G23KT 10SM CLR 26/15 A2994 RMK AO2 RAE51 SLP135 P0000 T02560150
KMKO 202053Z AUTO 16015G26KT 10SM -RA FEW044 26/16 A2997 RMK AO2 PK WND 16026/2047 RAB29 SLP143 P0000 60000 T02610161 56039
KMKO 201953Z AUTO 13015G21KT 10SM FEW039 26/17 A2999 RMK AO2 SLP151 T02560167
KMKO 201853Z AUTO 16014G20KT 10SM SCT090 23/16 A3004 RMK AO2 SLP168 T02280156
KMKO 201753Z AUTO 14013G18KT 10SM FEW043 SCT060 22/14 A3008 RMK AO2 SLP183 T02170144 10217 20122 58014
KMKO 201653Z AUTO 15012G19KT 10SM SCT035 19/14 A3012 RMK AO2 SLP195 T01940139
KMKO 201553Z AUTO 15010KT 10SM CLR 18/14 A3012 RMK AO2 SLP195 T01780139
KMKO 201453Z AUTO 14007KT 10SM CLR 16/13 A3013 RMK AO2 SLP198 T01610133 58001
KMKO 201353Z AUTO 14006KT 10SM BKN043 15/13 A3015 RMK AO2 SLP206 T01500128
KMKO 201253Z AUTO 17005KT 10SM CLR 13/12 A3013 RMK AO2 SLP199 T01280117
KMKO 201153Z AUTO 00000KT 10SM CLR 12/11 A3013 RMK AO2 SLP199 T01220111 10139 20117 58002
KMKO 201053Z AUTO 18004KT 10SM CLR 12/11 A3014 RMK AO2 SLP202 T01170106
KMKO 200953Z AUTO 15005KT 10SM CLR 13/11 A3013 RMK AO2 SLP199 T01280111
KMKO 200853Z AUTO 18005KT 10SM CLR 12/11 A3013 RMK AO2 SLP200 T01220106 58001
KMKO 200753Z AUTO 17003KT 10SM CLR 13/12 A3014 RMK AO2 SLP202 T01330117
KMKO 200653Z AUTO 17004KT 10SM CLR 13/12 A3014 RMK AO2 SLP202 T01280122
KMKO 200553Z AUTO 17003KT 10SM CLR 14/12 A3014 RMK AO2 SLP201 T01390122 10200 20133 402560094 50006
KMKO 200453Z AUTO 13004KT 10SM CLR 14/12 A3014 RMK AO2 SLP202 T01390122
KMKO 200353Z AUTO 18006KT 10SM CLR 14/12 A3014 RMK AO2 SLP202 T01440122
KMKO 200253Z AUTO 15004KT 10SM CLR 14/12 A3012 RMK AO2 SLP196 T01440122 53003
KMKO 200153Z AUTO 15004KT 10SM CLR 16/12 A3011 RMK AO2 SLP194 T01560122
KMKO 200053Z AUTO 13003KT 10SM CLR 18/12 A3011 RMK AO2 SLP194 T01830122
KMKO 192353Z AUTO 14005KT 10SM CLR 20/13 A3011 RMK AO2 SLP194 T02000128 10256 20194 56004
KMKO 192253Z AUTO 12006KT 10SM CLR 23/13 A3011 RMK AO2 SLP193 T02280128
KMKO 192153Z AUTO 14009KT 10SM CLR 24/12 A3012 RMK AO2 SLP194 T02390117
KMKO 192053Z AUTO 13008KT 10SM CLR 25/13 A3012 RMK AO2 SLP196 T02500133 56020
KMKO 191953Z AUTO 17006KT 10SM CLR 26/13 A3014 RMK AO2 SLP201 T02560128
KMKO 191853Z AUTO 17008KT 10SM CLR 24/13 A3016 RMK AO2 SLP207 T02440128
KMKO 191753Z AUTO 21008KT 10SM CLR 24/14 A3018 RMK AO2 SLP216 T02390139 10244 20094 58010
KMKO 191653Z AUTO 19008KT 10SM CLR 22/13 A3020 RMK AO2 SLP223 T02220133
KMKO 191553Z AUTO 17008KT 10SM CLR 20/13 A3021 RMK AO2 SLP228 T02000128